Time;durP1;ratioP1;P1;durP2;ratioP2;P2;SDS_P1;SDS_P2;PMS_P1;PMS_P2;Temp;Humidity;BMP_temperature;BMP_pressure;BME280_temperature;BME280_humidity;BME280_pressure;Samples;Min_cycle;Max_cycle;Signal;HPM_P1;HPM_P2
2023/01/15 00:01:25;;;;;;;9.40;1.60;;;;;;;;;;5056359;28;20405;-62
2023/01/15 00:03:52;;;;;;;6.20;1.65;;;;;;;;;;5074217;28;20048;-62
2023/01/15 00:06:19;;;;;;;8.23;1.85;;;;;;;;;;5074077;28;20044;-62
2023/01/15 00:08:45;;;;;;;5.50;1.70;;;;;;;;;;5073988;28;20082;-62
2023/01/15 00:11:11;;;;;;;6.20;1.70;;;;;;;;;;5074550;28;20040;-62
2023/01/15 00:13:37;;;;;;;8.43;1.90;;;;;;;;;;5073989;28;20123;-62
2023/01/15 00:16:04;;;;;;;11.30;1.73;;;;;;;;;;5074239;28;20175;-62
2023/01/15 00:18:30;;;;;;;9.07;2.13;;;;;;;;;;5073792;28;20047;-62
2023/01/15 00:21:03;;;;;;;12.15;1.50;;;;;;;;;;5074529;28;20032;-62
2023/01/15 00:29:00;;;;;;;7.15;1.40;;;;;;;;;;5073944;28;20480;-62
2023/01/15 00:31:27;;;;;;;11.52;2.25;;;;;;;;;;5074334;28;20048;-62
2023/01/15 00:33:53;;;;;;;10.25;1.50;;;;;;;;;;5073553;28;20082;-62
2023/01/15 00:36:19;;;;;;;7.10;1.33;;;;;;;;;;5074089;28;20051;-62
2023/01/15 00:38:45;;;;;;;9.20;1.70;;;;;;;;;;5073173;28;20029;-62
2023/01/15 00:41:11;;;;;;;9.18;1.73;;;;;;;;;;5074240;28;20044;-62
2023/01/15 00:43:37;;;;;;;8.90;2.05;;;;;;;;;;5055309;28;20063;-62
2023/01/15 00:46:04;;;;;;;7.72;1.88;;;;;;;;;;5074021;28;20040;-62
2023/01/15 00:48:30;;;;;;;11.18;1.90;;;;;;;;;;5073677;28;20045;-62
2023/01/15 00:50:56;;;;;;;9.48;1.50;;;;;;;;;;5073507;28;20055;-62
2023/01/15 00:53:22;;;;;;;8.50;1.65;;;;;;;;;;5073015;28;20047;-62
2023/01/15 00:55:48;;;;;;;7.85;1.73;;;;;;;;;;5073937;28;20039;-62
2023/01/15 00:58:14;;;;;;;7.32;1.45;;;;;;;;;;5073811;28;20115;-62
2023/01/15 01:00:40;;;;;;;8.27;1.67;;;;;;;;;;5073369;28;20098;-62
2023/01/15 01:03:06;;;;;;;7.75;1.20;;;;;;;;;;5072906;28;20398;-62
2023/01/15 01:05:32;;;;;;;11.85;1.83;;;;;;;;;;5055271;28;20045;-63
2023/01/15 01:07:59;;;;;;;15.32;2.15;;;;;;;;;;5055307;28;20470;-62
2023/01/15 01:10:27;;;;;;;8.80;1.85;;;;;;;;;;5073077;28;20516;-62
2023/01/15 01:12:54;;;;;;;4.90;1.55;;;;;;;;;;5054790;28;20512;-62
2023/01/15 01:15:20;;;;;;;10.15;1.75;;;;;;;;;;5073005;28;20048;-62
2023/01/15 01:17:47;;;;;;;8.65;1.40;;;;;;;;;;5072829;28;20508;-62
2023/01/15 01:20:14;;;;;;;6.07;1.80;;;;;;;;;;5072952;28;20047;-62
2023/01/15 01:22:40;;;;;;;6.95;2.15;;;;;;;;;;5072842;28;20058;-62
2023/01/15 01:25:07;;;;;;;9.52;1.98;;;;;;;;;;5072358;28;20059;-62
2023/01/15 01:27:33;;;;;;;6.90;1.75;;;;;;;;;;5072907;28;20119;-62
2023/01/15 01:29:59;;;;;;;10.90;1.75;;;;;;;;;;5073207;28;20066;-62
2023/01/15 01:32:25;;;;;;;9.80;2.03;;;;;;;;;;5072026;28;20156;-62
2023/01/15 01:34:51;;;;;;;6.22;1.38;;;;;;;;;;5072146;28;20043;-62
2023/01/15 01:37:17;;;;;;;15.35;2.13;;;;;;;;;;5072762;28;20426;-61
2023/01/15 01:39:43;;;;;;;9.57;2.45;;;;;;;;;;5072971;28;20052;-62
2023/01/15 01:42:13;;;;;;;7.53;1.65;;;;;;;;;;5072266;28;20041;-62
2023/01/15 01:44:39;;;;;;;9.30;1.90;;;;;;;;;;5072540;28;20453;-62
2023/01/15 01:47:06;;;;;;;9.50;2.45;;;;;;;;;;5072745;28;20040;-62
2023/01/15 01:49:33;;;;;;;6.57;1.30;;;;;;;;;;5072181;28;20097;-62
2023/01/15 01:52:03;;;;;;;6.88;1.33;;;;;;;;;;5072382;28;20040;-62
2023/01/15 01:54:30;;;;;;;10.35;1.80;;;;;;;;;;5072429;28;20033;-63
2023/01/15 01:56:56;;;;;;;10.93;1.85;;;;;;;;;;5054886;28;20483;-62
2023/01/15 01:59:24;;;;;;;14.40;1.98;;;;;;;;;;5072390;28;20048;-62
2023/01/15 02:01:50;;;;;;;10.65;1.80;;;;;;;;;;5072108;28;20037;-62
2023/01/15 02:04:17;;;;;;;6.68;1.50;;;;;;;;;;5054133;28;20041;-62
2023/01/15 02:06:43;;;;;;;9.88;1.80;;;;;;;;;;5072467;28;20036;-62
2023/01/15 02:09:09;;;;;;;10.65;1.90;;;;;;;;;;5072401;28;20045;-62
2023/01/15 02:11:35;;;;;;;9.38;1.85;;;;;;;;;;5072386;28;20032;-62
2023/01/15 02:14:21;;;;;;;13.10;1.83;;;;;;;;;;5072109;28;20090;-62
2023/01/15 02:16:47;;;;;;;7.53;1.70;;;;;;;;;;5071484;28;20040;-62
2023/01/15 02:19:13;;;;;;;10.98;1.80;;;;;;;;;;5071964;28;20083;-62
2023/01/15 02:21:55;;;;;;;9.15;1.65;;;;;;;;;;5072665;28;20072;-62
2023/01/15 02:24:30;;;;;;;9.63;1.60;;;;;;;;;;5071162;28;20491;-61
2023/01/15 02:27:01;;;;;;;11.82;1.90;;;;;;;;;;5052166;22;20060;-67
2023/01/15 02:29:39;;;;;;;13.10;1.77;;;;;;;;;;5043513;28;20082;-67
2023/01/15 02:32:08;;;;;;;13.25;2.88;;;;;;;;;;5012234;28;20088;-67
2023/01/15 02:34:38;;;;;;;10.90;1.55;;;;;;;;;;5012442;28;20038;-67
2023/01/15 02:37:08;;;;;;;7.78;1.60;;;;;;;;;;5011889;28;20076;-67
2023/01/15 02:39:38;;;;;;;12.15;1.83;;;;;;;;;;5011282;28;20096;-67
2023/01/15 02:42:05;;;;;;;9.00;1.77;;;;;;;;;;5012223;28;20073;-67
2023/01/15 02:44:33;;;;;;;7.30;2.30;;;;;;;;;;5012044;28;20072;-67
2023/01/15 02:47:00;;;;;;;8.13;1.75;;;;;;;;;;5012188;28;20045;-67
2023/01/15 02:49:26;;;;;;;11.43;1.98;;;;;;;;;;5011237;28;20046;-66
2023/01/15 02:52:00;;;;;;;7.32;1.20;;;;;;;;;;5012013;28;20049;-67
2023/01/15 02:54:29;;;;;;;5.63;1.48;;;;;;;;;;5011723;28;20120;-66
2023/01/15 02:56:56;;;;;;;19.17;2.10;;;;;;;;;;5011720;28;20088;-67
2023/01/15 02:59:24;;;;;;;7.97;1.67;;;;;;;;;;5011925;28;20034;-67
2023/01/15 03:01:53;;;;;;;6.43;1.85;;;;;;;;;;5023694;28;20033;-67
2023/01/15 03:04:19;;;;;;;9.75;1.42;;;;;;;;;;5030784;28;20041;-67
2023/01/15 03:06:48;;;;;;;12.80;1.75;;;;;;;;;;5031316;28;20468;-67
2023/01/15 03:09:14;;;;;;;7.97;2.10;;;;;;;;;;5031776;28;20045;-67
2023/01/15 03:11:44;;;;;;;10.57;1.98;;;;;;;;;;5031161;28;20552;-66
2023/01/15 03:14:20;;;;;;;13.52;1.80;;;;;;;;;;5030795;28;20041;-67
2023/01/15 03:16:46;;;;;;;10.75;1.90;;;;;;;;;;5031691;28;20045;-66
2023/01/15 03:19:31;;;;;;;11.05;2.78;;;;;;;;;;5031352;28;20041;-67
2023/01/15 03:22:15;;;;;;;11.40;1.90;;;;;;;;;;5031040;28;20049;-67
2023/01/15 03:24:44;;;;;;;9.93;1.80;;;;;;;;;;5031570;28;20041;-67
2023/01/15 03:27:10;;;;;;;9.75;1.80;;;;;;;;;;5031060;28;20576;-67
2023/01/15 03:29:42;;;;;;;18.02;2.45;;;;;;;;;;5030948;28;20041;-66
2023/01/15 03:32:08;;;;;;;8.55;1.42;;;;;;;;;;5031033;28;20048;-67
2023/01/15 03:34:40;;;;;;;10.40;1.50;;;;;;;;;;5031348;28;20033;-67
2023/01/15 03:37:06;;;;;;;7.68;2.00;;;;;;;;;;5031607;28;20042;-67
2023/01/15 03:39:32;;;;;;;10.23;2.10;;;;;;;;;;5030492;28;20041;-67
2023/01/15 03:42:06;;;;;;;14.10;1.88;;;;;;;;;;5031466;28;20056;-67
2023/01/15 03:44:40;;;;;;;8.40;1.77;;;;;;;;;;5031328;28;20506;-67
2023/01/15 03:47:29;;;;;;;11.88;2.08;;;;;;;;;;5030333;28;20127;-67
2023/01/15 03:49:59;;;;;;;10.50;1.80;;;;;;;;;;5018171;28;20060;-67
2023/01/15 03:52:33;;;;;;;8.18;1.73;;;;;;;;;;5030677;28;20049;-67
2023/01/15 03:55:08;;;;;;;13.48;2.65;;;;;;;;;;5030413;28;20483;-66
2023/01/15 03:57:37;;;;;;;12.23;1.77;;;;;;;;;;5013636;28;20052;-67
2023/01/15 04:00:29;;;;;;;11.07;2.05;;;;;;;;;;5034435;28;20034;-67
2023/01/15 04:02:56;;;;;;;7.53;2.10;;;;;;;;;;5029662;28;20049;-67
2023/01/15 04:05:23;;;;;;;11.50;1.70;;;;;;;;;;5034549;28;20045;-67
2023/01/15 04:07:50;;;;;;;14.48;2.22;;;;;;;;;;5017132;28;20377;-67
2023/01/15 04:10:16;;;;;;;8.27;1.45;;;;;;;;;;5034739;28;20080;-67
2023/01/15 04:12:42;;;;;;;11.18;1.80;;;;;;;;;;5033991;28;20041;-67
2023/01/15 04:15:10;;;;;;;9.95;1.60;;;;;;;;;;5034132;28;20064;-67
2023/01/15 04:17:36;;;;;;;8.50;2.10;;;;;;;;;;5034487;28;20112;-66
2023/01/15 04:20:02;;;;;;;7.85;1.35;;;;;;;;;;5033897;28;20049;-67
2023/01/15 04:22:29;;;;;;;10.43;2.08;;;;;;;;;;5035049;28;20376;-66
2023/01/15 04:24:55;;;;;;;10.18;2.60;;;;;;;;;;5016803;28;20045;-67
2023/01/15 04:27:21;;;;;;;12.60;2.28;;;;;;;;;;5034312;28;20461;-67
2023/01/15 04:29:47;;;;;;;17.42;2.28;;;;;;;;;;5033334;28;20046;-66
2023/01/15 04:32:13;;;;;;;10.60;1.58;;;;;;;;;;5033522;28;20045;-67
2023/01/15 04:34:39;;;;;;;12.55;2.30;;;;;;;;;;5034384;28;20125;-67
2023/01/15 04:37:06;;;;;;;13.32;2.20;;;;;;;;;;5033765;28;20113;-67
2023/01/15 04:39:32;;;;;;;11.20;1.50;;;;;;;;;;5034192;28;20076;-66
2023/01/15 04:44:43;;;;;;;14.25;2.20;;;;;;;;;;5033172;28;20415;-67
2023/01/15 04:47:09;;;;;;;6.65;2.17;;;;;;;;;;5033863;28;20064;-67
2023/01/15 04:49:35;;;;;;;10.05;1.20;;;;;;;;;;5034044;28;20057;-67
2023/01/15 04:52:01;;;;;;;17.58;2.85;;;;;;;;;;5033959;28;20096;-67
2023/01/15 04:54:27;;;;;;;13.10;1.75;;;;;;;;;;5032887;28;20055;-67
2023/01/15 04:56:54;;;;;;;11.10;2.38;;;;;;;;;;5033431;28;20526;-67
2023/01/15 04:59:21;;;;;;;10.40;2.35;;;;;;;;;;5033617;28;20037;-67
2023/01/15 05:01:47;;;;;;;9.80;1.60;;;;;;;;;;5031592;28;20072;-67
2023/01/15 05:04:14;;;;;;;9.55;2.00;;;;;;;;;;5032874;28;20041;-67
2023/01/15 05:06:40;;;;;;;8.65;1.70;;;;;;;;;;5031952;28;20164;-67
2023/01/15 05:09:06;;;;;;;10.07;1.52;;;;;;;;;;5033184;28;20494;-67
2023/01/15 05:11:34;;;;;;;5.78;1.67;;;;;;;;;;5031664;28;20041;-67
2023/01/15 05:14:00;;;;;;;11.38;1.65;;;;;;;;;;5033362;28;20045;-67
2023/01/15 05:16:27;;;;;;;9.68;1.88;;;;;;;;;;5033552;28;20131;-67
2023/01/15 05:18:54;;;;;;;11.85;1.95;;;;;;;;;;5033154;28;20124;-67
2023/01/15 05:21:22;;;;;;;16.83;2.20;;;;;;;;;;5032611;28;20033;-66
2023/01/15 05:23:49;;;;;;;8.82;1.75;;;;;;;;;;5033104;28;20049;-67
2023/01/15 05:26:15;;;;;;;8.93;1.58;;;;;;;;;;5031752;28;20064;-67
2023/01/15 05:28:41;;;;;;;10.45;1.60;;;;;;;;;;5033375;28;20060;-67
2023/01/15 05:31:08;;;;;;;13.18;1.67;;;;;;;;;;5032763;28;20164;-67
2023/01/15 05:33:35;;;;;;;13.90;1.83;;;;;;;;;;5033143;28;20087;-67
2023/01/15 05:36:01;;;;;;;12.07;2.47;;;;;;;;;;5032331;28;20056;-67
2023/01/15 05:38:27;;;;;;;9.05;1.75;;;;;;;;;;5033013;28;20562;-67
2023/01/15 05:40:53;;;;;;;11.63;2.28;;;;;;;;;;5032716;28;20125;-67
2023/01/15 05:43:19;;;;;;;8.65;1.67;;;;;;;;;;5031865;28;20045;-67
2023/01/15 05:45:45;;;;;;;5.95;1.45;;;;;;;;;;5032978;28;20046;-66
2023/01/15 05:48:11;;;;;;;10.40;2.00;;;;;;;;;;5032397;28;20041;-67
2023/01/15 05:50:37;;;;;;;17.85;2.03;;;;;;;;;;5032745;28;20411;-67
2023/01/15 05:53:03;;;;;;;5.45;1.23;;;;;;;;;;5032070;28;20103;-67
2023/01/15 05:55:29;;;;;;;11.90;1.75;;;;;;;;;;5032499;28;20037;-67
2023/01/15 05:57:56;;;;;;;10.85;1.75;;;;;;;;;;5032589;28;20450;-67
2023/01/15 06:00:23;;;;;;;11.27;1.85;;;;;;;;;;5014735;28;20048;-66
2023/01/15 06:02:49;;;;;;;9.70;1.60;;;;;;;;;;5032001;28;20554;-67
2023/01/15 06:05:19;;;;;;;10.07;1.30;;;;;;;;;;5032138;28;20073;-67
2023/01/15 06:07:47;;;;;;;6.95;1.38;;;;;;;;;;5032029;28;20084;-66
2023/01/15 06:10:14;;;;;;;9.95;1.75;;;;;;;;;;5032179;28;20495;-67
2023/01/15 06:12:40;;;;;;;6.82;1.27;;;;;;;;;;5031932;28;20037;-67
2023/01/15 06:15:06;;;;;;;10.55;1.40;;;;;;;;;;5032095;28;20038;-67
2023/01/15 06:17:32;;;;;;;6.45;1.30;;;;;;;;;;5031603;28;20041;-67
2023/01/15 06:19:58;;;;;;;8.10;1.52;;;;;;;;;;5032237;28;20418;-67
2023/01/15 06:22:24;;;;;;;9.98;2.08;;;;;;;;;;5031738;28;20098;-67
2023/01/15 06:24:50;;;;;;;9.25;1.50;;;;;;;;;;5032131;28;20057;-67
2023/01/15 06:27:16;;;;;;;7.82;1.65;;;;;;;;;;5031211;28;20044;-67
2023/01/15 06:29:42;;;;;;;9.13;1.95;;;;;;;;;;5032110;28;20045;-67
2023/01/15 06:32:08;;;;;;;12.40;2.15;;;;;;;;;;5031624;28;20037;-67
2023/01/15 06:34:35;;;;;;;11.77;1.92;;;;;;;;;;5031643;28;20072;-67
2023/01/15 06:37:01;;;;;;;9.77;1.88;;;;;;;;;;5031584;28;20384;-67
2023/01/15 06:39:27;;;;;;;8.55;1.30;;;;;;;;;;5031964;28;20124;-67
2023/01/15 06:47:23;;;;;;;7.78;1.38;;;;;;;;;;5031798;28;20495;-67
2023/01/15 06:49:50;;;;;;;11.30;2.08;;;;;;;;;;5030956;28;20072;-67
2023/01/15 06:52:16;;;;;;;13.75;1.90;;;;;;;;;;5031290;28;20116;-67
2023/01/15 06:54:42;;;;;;;9.95;1.73;;;;;;;;;;5032064;28;20065;-67
2023/01/15 06:57:08;;;;;;;8.60;1.60;;;;;;;;;;5031844;28;20040;-67
2023/01/15 06:59:34;;;;;;;12.45;2.15;;;;;;;;;;5031319;28;20037;-67
2023/01/15 07:02:00;;;;;;;10.40;1.70;;;;;;;;;;5013211;28;20045;-67
2023/01/15 07:04:26;;;;;;;5.85;1.23;;;;;;;;;;5031828;28;20045;-67
2023/01/15 07:06:52;;;;;;;6.32;1.50;;;;;;;;;;5031309;28;20042;-67
2023/01/15 07:09:18;;;;;;;9.02;1.63;;;;;;;;;;5031594;28;20037;-67
2023/01/15 07:11:50;;;;;;;12.30;1.92;;;;;;;;;;5031621;28;20068;-67
2023/01/15 07:14:20;;;;;;;10.48;2.10;;;;;;;;;;5031453;28;20445;-67
2023/01/15 07:16:46;;;;;;;9.18;2.05;;;;;;;;;;5030905;28;20071;-67
2023/01/15 07:19:12;;;;;;;8.45;1.65;;;;;;;;;;5031550;28;20076;-67
2023/01/15 07:21:38;;;;;;;8.05;1.75;;;;;;;;;;5031146;28;20033;-67
2023/01/15 07:24:04;;;;;;;10.52;1.90;;;;;;;;;;5013298;28;20045;-68
2023/01/15 07:26:30;;;;;;;7.97;1.35;;;;;;;;;;5031417;28;20128;-68
2023/01/15 07:28:56;;;;;;;11.00;1.60;;;;;;;;;;5030924;28;20481;-68
2023/01/15 07:31:22;;;;;;;11.25;1.77;;;;;;;;;;5031023;28;20046;-68
2023/01/15 07:33:48;;;;;;;7.07;1.58;;;;;;;;;;5032686;28;20041;-68
2023/01/15 07:36:14;;;;;;;7.93;1.63;;;;;;;;;;5035420;28;20057;-67
2023/01/15 07:38:40;;;;;;;7.90;1.20;;;;;;;;;;5035363;28;20037;-68
2023/01/15 07:52:05;;;;;;;7.20;1.35;;;;;;;;;;5034597;28;20411;-68
2023/01/15 07:54:31;;;;;;;4.70;1.27;;;;;;;;;;5034902;28;20042;-68
2023/01/15 07:56:57;;;;;;;7.57;1.55;;;;;;;;;;5034608;28;20037;-68
2023/01/15 07:59:26;;;;;;;13.13;1.80;;;;;;;;;;5034776;28;20487;-68
2023/01/15 08:01:52;;;;;;;9.13;1.80;;;;;;;;;;5034784;28;20045;-68
2023/01/15 08:04:18;;;;;;;7.07;1.75;;;;;;;;;;5034313;28;20044;-67
2023/01/15 08:06:44;;;;;;;8.80;1.50;;;;;;;;;;5034126;28;20560;-68
2023/01/15 08:09:10;;;;;;;14.05;1.98;;;;;;;;;;5034158;28;20095;-68
2023/01/15 08:17:06;;;;;;;4.50;1.15;;;;;;;;;;5034578;28;20077;-68
2023/01/15 08:19:32;;;;;;;7.95;1.83;;;;;;;;;;5034086;28;20045;-67
2023/01/15 08:22:01;;;;;;;7.70;1.77;;;;;;;;;;5034068;28;20413;-68
2023/01/15 08:24:28;;;;;;;7.90;1.50;;;;;;;;;;5034116;28;20038;-68
2023/01/15 08:26:54;;;;;;;5.35;1.10;;;;;;;;;;5055296;22;20101;-65
2023/01/15 08:29:21;;;;;;;11.57;1.65;;;;;;;;;;5053094;28;20037;-66
2023/01/15 08:31:47;;;;;;;8.48;1.52;;;;;;;;;;5053280;28;20082;-65
2023/01/15 08:34:14;;;;;;;12.48;1.83;;;;;;;;;;5052692;28;20394;-66
2023/01/15 08:36:40;;;;;;;11.13;1.75;;;;;;;;;;5054366;28;20040;-65
2023/01/15 08:39:06;;;;;;;11.48;1.73;;;;;;;;;;5053753;28;20166;-66
2023/01/15 08:41:32;;;;;;;4.75;1.00;;;;;;;;;;5054160;28;20047;-65
2023/01/15 08:43:58;;;;;;;8.48;1.75;;;;;;;;;;5053218;28;20056;-66
2023/01/15 08:46:24;;;;;;;9.20;1.60;;;;;;;;;;5052990;28;20053;-65
2023/01/15 08:48:52;;;;;;;8.85;2.05;;;;;;;;;;5053695;28;20098;-66
2023/01/15 08:51:18;;;;;;;11.43;1.50;;;;;;;;;;5054063;28;20564;-65
2023/01/15 08:53:44;;;;;;;10.38;1.55;;;;;;;;;;5053463;28;20502;-66
2023/01/15 08:56:12;;;;;;;7.60;1.40;;;;;;;;;;5052000;28;20479;-65
2023/01/15 08:58:38;;;;;;;9.70;1.40;;;;;;;;;;5053907;28;20041;-66
2023/01/15 09:01:05;;;;;;;5.88;1.60;;;;;;;;;;5053536;28;20044;-65
2023/01/15 09:03:32;;;;;;;7.60;1.55;;;;;;;;;;5053031;28;20437;-65
2023/01/15 09:05:58;;;;;;;8.57;1.42;;;;;;;;;;5053828;28;20048;-65
2023/01/15 09:08:24;;;;;;;5.15;1.10;;;;;;;;;;5053161;28;20086;-65
2023/01/15 09:10:50;;;;;;;11.50;1.73;;;;;;;;;;5053132;28;20445;-65
2023/01/15 09:13:16;;;;;;;5.60;1.27;;;;;;;;;;5052677;28;20049;-67
2023/01/15 09:15:43;;;;;;;5.78;1.25;;;;;;;;;;5053010;28;20073;-66
2023/01/15 09:18:11;;;;;;;5.30;1.15;;;;;;;;;;5053496;28;20271;-67
2023/01/15 09:20:37;;;;;;;6.55;1.20;;;;;;;;;;5053001;28;20486;-66
2023/01/15 09:23:03;;;;;;;5.53;1.02;;;;;;;;;;5052935;28;20402;-67
2023/01/15 09:25:29;;;;;;;3.85;0.73;;;;;;;;;;5052818;28;20044;-67
2023/01/15 09:27:56;;;;;;;6.88;0.90;;;;;;;;;;5052328;28;20482;-67
2023/01/15 09:30:22;;;;;;;6.00;0.95;;;;;;;;;;5052985;28;20044;-67
2023/01/15 09:32:48;;;;;;;4.35;0.98;;;;;;;;;;5052729;28;20052;-66
2023/01/15 09:35:14;;;;;;;2.95;1.13;;;;;;;;;;5053251;28;20033;-67
2023/01/15 09:37:40;;;;;;;7.28;1.05;;;;;;;;;;5052479;28;20033;-66
2023/01/15 09:40:08;;;;;;;6.35;1.63;;;;;;;;;;5052693;28;20368;-67
2023/01/15 09:42:55;;;;;;;6.30;1.38;;;;;;;;;;5052533;28;20045;-67
2023/01/15 09:45:25;;;;;;;9.88;1.40;;;;;;;;;;5050730;28;20045;-66
2023/01/15 09:47:51;;;;;;;5.88;1.27;;;;;;;;;;5053122;28;20037;-64
2023/01/15 09:50:17;;;;;;;7.95;1.42;;;;;;;;;;5052570;28;20098;-63
2023/01/15 09:52:49;;;;;;;10.48;1.77;;;;;;;;;;5051795;28;20041;-63
2023/01/15 09:55:24;;;;;;;9.05;1.33;;;;;;;;;;5051772;28;20044;-64
2023/01/15 09:57:53;;;;;;;5.65;1.45;;;;;;;;;;5052345;28;20041;-65
2023/01/15 10:00:22;;;;;;;9.30;1.73;;;;;;;;;;5052751;28;20041;-64
2023/01/15 10:02:51;;;;;;;9.80;1.80;;;;;;;;;;5051811;28;20045;-65
2023/01/15 10:05:23;;;;;;;7.63;1.20;;;;;;;;;;5052118;28;20048;-65
2023/01/15 10:08:08;;;;;;;9.60;1.40;;;;;;;;;;5052403;28;20573;-65
2023/01/15 10:10:47;;;;;;;2.30;1.02;;;;;;;;;;5051704;28;20040;-65
2023/01/15 10:13:36;;;;;;;6.78;1.30;;;;;;;;;;5052028;28;20044;-65
2023/01/15 10:16:02;;;;;;;7.97;1.30;;;;;;;;;;5052153;28;20445;-64
2023/01/15 10:18:29;;;;;;;2.95;1.10;;;;;;;;;;5052091;28;20048;-65
2023/01/15 10:20:55;;;;;;;6.70;1.42;;;;;;;;;;5051878;28;20041;-65
2023/01/15 10:23:20;;;;;;;4.15;1.13;;;;;;;;;;5051897;28;20051;-65
2023/01/15 10:25:51;;;;;;;7.22;1.52;;;;;;;;;;5051801;28;20045;-65
2023/01/15 10:28:25;;;;;;;5.28;1.13;;;;;;;;;;5051608;28;20053;-65
2023/01/15 10:30:52;;;;;;;7.43;1.52;;;;;;;;;;5033858;28;20120;-65
2023/01/15 10:33:25;;;;;;;10.43;1.70;;;;;;;;;;5051838;28;20045;-65
2023/01/15 10:35:58;;;;;;;5.07;1.40;;;;;;;;;;5051198;28;20401;-65
2023/01/15 10:38:39;;;;;;;7.60;1.33;;;;;;;;;;5052048;28;20380;-65
2023/01/15 10:41:24;;;;;;;7.35;1.40;;;;;;;;;;5051910;28;20040;-64
2023/01/15 10:44:04;;;;;;;6.25;1.20;;;;;;;;;;5050776;28;20530;-64
2023/01/15 10:46:36;;;;;;;11.63;1.55;;;;;;;;;;5051198;28;20048;-64
2023/01/15 10:49:05;;;;;;;6.95;2.08;;;;;;;;;;5051875;28;20041;-64
2023/01/15 10:51:37;;;;;;;9.27;1.15;;;;;;;;;;5051746;28;20376;-64
2023/01/15 10:54:21;;;;;;;10.70;1.75;;;;;;;;;;5051014;28;20045;-65
2023/01/15 10:57:00;;;;;;;5.82;1.27;;;;;;;;;;5051417;28;20069;-65
2023/01/15 10:59:46;;;;;;;8.55;1.80;;;;;;;;;;5051813;28;20043;-65
2023/01/15 11:02:21;;;;;;;12.73;1.58;;;;;;;;;;5050635;28;20493;-65
2023/01/15 11:04:47;;;;;;;14.18;1.90;;;;;;;;;;5051635;28;20052;-65
2023/01/15 11:07:13;;;;;;;8.88;1.98;;;;;;;;;;5050986;28;20096;-65
2023/01/15 11:09:40;;;;;;;7.15;2.05;;;;;;;;;;5054666;28;20576;-66
2023/01/15 11:20:31;;;;;;;7.32;1.60;;;;;;;;;;5054812;28;20048;-65
2023/01/15 11:23:05;;;;;;;7.50;1.88;;;;;;;;;;5055098;28;20099;-65
2023/01/15 11:25:32;;;;;;;6.03;1.58;;;;;;;;;;5055494;28;20037;-65
2023/01/15 11:28:00;;;;;;;10.00;1.50;;;;;;;;;;5053813;28;20055;-65
2023/01/15 11:30:28;;;;;;;6.88;1.75;;;;;;;;;;5053766;28;20500;-65
2023/01/15 11:32:55;;;;;;;9.57;1.52;;;;;;;;;;5053552;28;20053;-65
2023/01/15 11:35:21;;;;;;;9.50;2.10;;;;;;;;;;5053652;28;20122;-65
2023/01/15 11:37:47;;;;;;;9.43;2.25;;;;;;;;;;5054117;28;20033;-65
2023/01/15 11:40:18;;;;;;;6.40;1.33;;;;;;;;;;5054001;28;20041;-65
2023/01/15 11:51:16;;;;;;;7.43;1.50;;;;;;;;;;5053573;28;20087;-65
2023/01/15 11:53:49;;;;;;;8.10;1.90;;;;;;;;;;5052288;28;20498;-65
2023/01/15 11:56:20;;;;;;;8.57;1.55;;;;;;;;;;5053083;28;20120;-65
2023/01/15 11:58:50;;;;;;;9.50;1.60;;;;;;;;;;5053891;28;20059;-65
2023/01/15 12:01:27;;;;;;;7.17;1.40;;;;;;;;;;5053302;28;20041;-64
2023/01/15 12:03:54;;;;;;;9.95;1.95;;;;;;;;;;5053191;28;20048;-64
2023/01/15 12:06:20;;;;;;;8.00;1.63;;;;;;;;;;5052496;28;20045;-64
2023/01/15 12:08:50;;;;;;;7.55;1.90;;;;;;;;;;5053431;28;20037;-65
2023/01/15 12:11:35;;;;;;;5.78;1.98;;;;;;;;;;5052833;28;20044;-65
2023/01/15 12:14:15;;;;;;;8.82;1.45;;;;;;;;;;5053072;28;20044;-65
2023/01/15 12:16:50;;;;;;;10.43;2.58;;;;;;;;;;5053285;28;20037;-65
2023/01/15 12:19:25;;;;;;;9.27;2.00;;;;;;;;;;5053081;28;20410;-65
2023/01/15 12:21:54;;;;;;;7.30;1.77;;;;;;;;;;5053122;28;20070;-65
2023/01/15 12:24:38;;;;;;;13.07;2.53;;;;;;;;;;5053065;28;20094;-65
2023/01/15 12:27:07;;;;;;;12.73;2.60;;;;;;;;;;5015754;28;1060616;-65
2023/01/15 12:29:39;;;;;;;13.60;1.73;;;;;;;;;;5054557;28;20033;-65
2023/01/15 12:32:14;;;;;;;8.95;1.65;;;;;;;;;;5054138;28;20387;-65
2023/01/15 12:34:46;;;;;;;10.75;2.03;;;;;;;;;;5053798;28;20045;-65
2023/01/15 12:37:34;;;;;;;12.15;2.15;;;;;;;;;;5035851;28;20045;-65
2023/01/15 12:40:15;;;;;;;5.55;1.75;;;;;;;;;;5054353;28;20036;-65
2023/01/15 12:45:33;;;;;;;8.43;1.65;;;;;;;;;;5054060;28;20047;-65
2023/01/15 12:48:05;;;;;;;11.13;1.92;;;;;;;;;;5053143;28;20441;-65
2023/01/15 12:50:36;;;;;;;13.00;2.30;;;;;;;;;;5053800;28;20063;-65
2023/01/15 12:53:17;;;;;;;12.32;2.15;;;;;;;;;;5053053;28;20076;-65
2023/01/15 12:55:48;;;;;;;9.43;1.80;;;;;;;;;;5053813;28;20045;-66
2023/01/15 12:58:28;;;;;;;10.43;1.67;;;;;;;;;;5053867;28;20043;-66
2023/01/15 13:01:01;;;;;;;7.70;1.77;;;;;;;;;;5053469;28;20079;-65
2023/01/15 13:03:29;;;;;;;8.88;1.88;;;;;;;;;;5053178;28;20051;-65
2023/01/15 13:05:57;;;;;;;8.30;1.73;;;;;;;;;;5053694;28;20124;-65
2023/01/15 13:08:35;;;;;;;8.00;1.65;;;;;;;;;;5053237;28;20036;-66
2023/01/15 13:11:01;;;;;;;9.95;1.70;;;;;;;;;;5053363;28;20040;-66
2023/01/15 13:13:32;;;;;;;10.00;1.67;;;;;;;;;;5052942;28;20102;-66
2023/01/15 13:16:04;;;;;;;10.05;1.73;;;;;;;;;;5053006;28;20040;-66
2023/01/15 13:18:40;;;;;;;8.95;1.40;;;;;;;;;;5053397;28;20494;-66
2023/01/15 13:21:14;;;;;;;9.23;1.52;;;;;;;;;;5053357;28;20167;-66
2023/01/15 13:23:40;;;;;;;8.10;1.70;;;;;;;;;;5039463;28;20147;-66
2023/01/15 13:26:06;;;;;;;6.97;1.23;;;;;;;;;;5053071;28;20037;-66
2023/01/15 13:28:38;;;;;;;6.03;1.20;;;;;;;;;;5052630;28;20045;-66
2023/01/15 13:31:04;;;;;;;5.70;1.15;;;;;;;;;;5052368;28;20079;-64
2023/01/15 13:33:59;;;;;;;7.95;1.42;;;;;;;;;;5051674;28;20082;-65
2023/01/15 13:36:27;;;;;;;10.25;1.98;;;;;;;;;;5040168;28;20136;-65
2023/01/15 13:38:54;;;;;;;6.30;1.52;;;;;;;;;;5052740;28;20033;-65
2023/01/15 13:44:18;;;;;;;11.65;2.00;;;;;;;;;;5051921;28;20537;-65
2023/01/15 13:46:45;;;;;;;10.07;1.80;;;;;;;;;;5053014;28;20068;-65
2023/01/15 13:49:23;;;;;;;9.30;1.80;;;;;;;;;;5052773;28;20044;-65
2023/01/15 13:51:50;;;;;;;7.28;2.00;;;;;;;;;;5052847;28;20057;-65
2023/01/15 13:54:18;;;;;;;7.70;1.50;;;;;;;;;;5052117;28;20136;-65
2023/01/15 13:56:44;;;;;;;9.45;3.10;;;;;;;;;;5052074;28;20494;-65
2023/01/15 13:59:46;;;;;;;10.30;2.28;;;;;;;;;;5052417;28;20446;-65
2023/01/15 14:02:25;;;;;;;10.65;2.08;;;;;;;;;;4990537;28;20046;-65
2023/01/15 14:04:52;;;;;;;7.10;1.70;;;;;;;;;;5045691;28;20041;-65
2023/01/15 14:07:29;;;;;;;9.52;2.75;;;;;;;;;;5051713;28;20049;-65
2023/01/15 14:10:06;;;;;;;9.93;2.17;;;;;;;;;;5052713;28;20072;-65
2023/01/15 14:12:50;;;;;;;6.57;1.63;;;;;;;;;;5051958;28;20120;-65
2023/01/15 14:15:39;;;;;;;7.45;1.70;;;;;;;;;;5051902;28;20040;-65
2023/01/15 14:18:19;;;;;;;9.27;1.60;;;;;;;;;;5052288;28;20433;-65
2023/01/15 14:20:54;;;;;;;5.55;2.00;;;;;;;;;;5052475;28;20048;-65
2023/01/15 14:23:20;;;;;;;4.72;1.60;;;;;;;;;;5051054;28;20037;-65
2023/01/15 14:28:21;;;;;;;12.38;2.25;;;;;;;;;;5036113;28;20053;-68
2023/01/15 14:31:05;;;;;;;10.13;2.13;;;;;;;;;;5042638;28;20111;-67
2023/01/15 14:33:50;;;;;;;8.02;1.50;;;;;;;;;;5048337;28;20495;-69
2023/01/15 14:36:18;;;;;;;4.07;0.80;;;;;;;;;;5050095;28;20090;-68
2023/01/15 14:38:52;;;;;;;2.10;0.70;;;;;;;;;;5071811;28;20051;-68
2023/01/15 14:41:25;;;;;;;1.38;0.52;;;;;;;;;;5072116;28;20124;-68
2023/01/15 14:43:52;;;;;;;2.03;0.47;;;;;;;;;;5067810;28;20463;-67
2023/01/15 14:46:29;;;;;;;4.18;0.75;;;;;;;;;;5061075;28;20608;-68
2023/01/15 14:48:56;;;;;;;2.78;0.80;;;;;;;;;;5068812;28;20134;-67
2023/01/15 14:51:26;;;;;;;3.05;0.70;;;;;;;;;;5067309;28;20161;-67
2023/01/15 14:53:55;;;;;;;2.67;0.60;;;;;;;;;;5063382;28;20463;-67
2023/01/15 14:56:28;;;;;;;2.90;0.60;;;;;;;;;;5058837;28;20055;-67
2023/01/15 14:59:04;;;;;;;6.53;1.98;;;;;;;;;;5065007;28;20124;-66
2023/01/15 15:01:34;;;;;;;3.40;1.83;;;;;;;;;;5051455;28;20418;-66
2023/01/15 15:04:19;;;;;;;6.03;1.40;;;;;;;;;;5052527;28;20052;-66
2023/01/15 15:06:47;;;;;;;5.47;3.83;;;;;;;;;;5060864;28;20048;-67
2023/01/15 15:09:13;;;;;;;4.28;2.00;;;;;;;;;;5055810;28;20052;-67
2023/01/15 15:14:35;;;;;;;5.53;2.28;;;;;;;;;;5069626;28;20076;-66
2023/01/15 15:17:04;;;;;;;2.38;1.92;;;;;;;;;;5064781;28;20036;-66
2023/01/15 15:19:35;;;;;;;5.03;2.45;;;;;;;;;;5060955;28;20494;-66
2023/01/15 15:22:03;;;;;;;5.22;2.42;;;;;;;;;;5065158;28;20506;-66
2023/01/15 15:24:31;;;;;;;6.68;1.23;;;;;;;;;;5054034;28;20518;-66
2023/01/15 15:27:07;;;;;;;4.07;1.05;;;;;;;;;;5060841;28;20047;-66
2023/01/15 15:29:33;;;;;;;4.47;2.03;;;;;;;;;;5070791;28;20083;-66
2023/01/15 15:32:02;;;;;;;6.65;1.52;;;;;;;;;;5071898;28;20502;-66
2023/01/15 15:34:31;;;;;;;3.17;1.30;;;;;;;;;;5062964;28;20063;-66
2023/01/15 15:36:58;;;;;;;7.88;1.50;;;;;;;;;;5063590;28;20033;-66
2023/01/15 15:39:26;;;;;;;4.55;1.25;;;;;;;;;;5050481;28;20037;-66
2023/01/15 15:50:30;;;;;;;5.60;1.25;;;;;;;;;;5057048;28;20254;-64
2023/01/15 15:52:57;;;;;;;7.28;2.65;;;;;;;;;;5064142;28;20118;-67
2023/01/15 15:55:24;;;;;;;7.80;1.88;;;;;;;;;;5060881;28;20048;-67
2023/01/15 15:57:54;;;;;;;6.45;3.28;;;;;;;;;;5069594;28;20521;-67